Awaji Maru — JD2988 — position and weather

sailwx.info

Track history (hours):
 
Tides and Currents Weather Stations Pressure Air Temp Water Temp Dewpoint Dewpoint Depression Visibility Wind Speed Wind Dir Waves Ship Positions

Awaji Maru

Last reported at 2015-Jul-03 07:34 UTC. Time now 2015-Jul-03 07:57 UTC.
Position N 35°27' E 139°39'.

Length 37 m; draft 3 m.

Type: Tug. MMSI: 431001074.

Date/timePositionNaut miles runAvg speedWind from/ knotsBaromVisibWave heightAir tempDewpointWater temp
2015-Jul-03 07:34N 35°27' E 139°39'0 0.0
2015-Jul-03 06:33N 35°27' E 139°39'0 0.0
2015-Jul-03 05:33N 35°27' E 139°39'0 0.1
2015-Jul-03 04:33N 35°27' E 139°39'4 4.4
2015-Jul-03 03:33N 35°28' E 139°44'1 0.6
2015-Jul-03 02:33N 35°28' E 139°44'2 1.6
2015-Jul-03 01:33N 35°29' E 139°45'0 0.0
2015-Jul-03 00:33N 35°29' E 139°45'0 0.0
2015-Jul-02 23:33N 35°29' E 139°45'1 1.4
2015-Jul-02 22:33N 35°30' E 139°45'3 2.8
2015-Jul-02 21:33N 35°29' E 139°42'3 2.7
2015-Jul-02 20:33N 35°27' E 139°39'0 0.0
2015-Jul-02 19:34N 35°27' E 139°39'0 0.0
2015-Jul-02 18:33N 35°27' E 139°39'0 0.0
2015-Jul-02 17:34N 35°27' E 139°39'0 0.0
2015-Jul-02 16:33N 35°27' E 139°39'0 0.0
2015-Jul-02 15:33N 35°27' E 139°39'0 0.0
2015-Jul-02 14:33N 35°27' E 139°39'0 0.0
2015-Jul-02 13:33N 35°27' E 139°39'0 0.0
2015-Jul-02 12:33N 35°27' E 139°39'0 0.0
2015-Jul-02 11:34N 35°27' E 139°39'0 0.0
2015-Jul-02 10:34N 35°27' E 139°39'0 0.0
2015-Jul-02 09:33N 35°27' E 139°39'0 0.0
2015-Jul-02 08:33N 35°27' E 139°39'0 0.0
2015-Jul-02 07:33N 35°27' E 139°39'2 2.1
2015-Jul-02 06:33N 35°26' E 139°42'3 2.8
2015-Jul-02 05:33N 35°25' E 139°39'2 2.3
2015-Jul-02 04:33N 35°23' E 139°41'1 0.6
2015-Jul-02 03:33N 35°23' E 139°40'5 4.7
2015-Jul-02 02:33N 35°27' E 139°40'1 0.8
2015-Jul-02 01:33N 35°27' E 139°41'3 2.9
2015-Jul-02 00:32N 35°24' E 139°39'0 0.2
2015-Jul-01 23:33N 35°24' E 139°39'3 2.7
2015-Jul-01 22:32N 35°26' E 139°42'1 0.7
2015-Jul-01 21:33N 35°26' E 139°42'2 2.4
2015-Jul-01 20:33N 35°27' E 139°39'0 0.3
2015-Jul-01 19:33N 35°27' E 139°39'0 0.0
2015-Jul-01 18:20N 35°27' E 139°39'0 0.0
2015-Jul-01 17:16N 35°27' E 139°39'0 0.0
2015-Jul-01 16:33N 35°27' E 139°39'0 0.0
2015-Jul-01 14:33N 35°27' E 139°39'0 0.0
2015-Jul-01 13:24N 35°27' E 139°39'0 0.0
2015-Jul-01 11:29N 35°27' E 139°39'0 0.0
2015-Jul-01 10:33N 35°27' E 139°39'2 1.9
2015-Jul-01 09:33N 35°27' E 139°42'1 1.0
2015-Jul-01 08:33N 35°28' E 139°42'2 2.0
2015-Jul-01 07:33N 35°26' E 139°41'4 3.9
2015-Jul-01 06:33N 35°27' E 139°45'5 4.6
2015-Jul-01 05:33N 35°27' E 139°40'4 3.6
2015-Jul-01 04:33N 35°24' E 139°40'0 0.1
2015-Jul-01 03:33N 35°24' E 139°40'1 0.5
2015-Jul-01 02:33N 35°23' E 139°40'2 1.9
2015-Jul-01 01:32N 35°25' E 139°39'2 2.2
2015-Jul-01 00:33N 35°23' E 139°41'4 3.8
2015-Jun-30 23:34N 35°27' E 139°43'3 2.9
2015-Jun-30 22:34N 35°27' E 139°39'0 0.0
2015-Jun-30 21:34N 35°27' E 139°39'0 0.0
2015-Jun-30 20:34N 35°27' E 139°39'0 0.0
2015-Jun-30 19:33N 35°27' E 139°39'0 0.0
2015-Jun-30 18:34N 35°27' E 139°39'0 0.0
2015-Jun-30 17:33N 35°27' E 139°39'0 0.0
2015-Jun-30 16:33N 35°27' E 139°39'0 0.0
2015-Jun-30 15:34N 35°27' E 139°39'0 0.0
2015-Jun-30 14:34N 35°27' E 139°39'0 0.0
2015-Jun-30 13:34N 35°27' E 139°39'0 0.0
2015-Jun-30 12:34N 35°27' E 139°39'0 0.0
2015-Jun-30 11:33N 35°27' E 139°39'0 0.0
2015-Jun-30 10:34N 35°27' E 139°39'0 0.0
2015-Jun-30 09:33N 35°27' E 139°39'2 1.9
2015-Jun-30 08:34N 35°25' E 139°41'2 1.9
2015-Jun-30 07:33N 35°27' E 139°39'0 0.0
2015-Jun-30 06:33N 35°27' E 139°39'0 0.0
2015-Jun-30 05:33N 35°27' E 139°39'4 4.0
2015-Jun-30 04:33N 35°29' E 139°43'0 0.3
2015-Jun-30 03:34N 35°29' E 139°43'0 0.0
2015-Jun-30 02:34N 35°29' E 139°43'0 0.0
2015-Jun-30 01:33N 35°29' E 139°43'7 6.8
2015-Jun-30 00:33N 35°24' E 139°38'3 2.7
2015-Jun-29 23:34N 35°24' E 139°41'4 3.6
2015-Jun-29 22:34N 35°27' E 139°39'0 0.0
2015-Jun-29 21:33N 35°27' E 139°39'0 0.0
2015-Jun-29 20:33N 35°27' E 139°39'0 0.0
2015-Jun-29 19:33N 35°27' E 139°39'0 0.0
2015-Jun-29 18:33N 35°27' E 139°39'0 0.0
2015-Jun-29 17:33N 35°27' E 139°39'0 0.0
2015-Jun-29 16:33N 35°27' E 139°39'0 0.0
2015-Jun-29 15:33N 35°27' E 139°39'0 0.0
2015-Jun-29 14:33N 35°27' E 139°39'0 0.0
2015-Jun-29 13:34N 35°27' E 139°39'0 0.0
2015-Jun-29 12:34N 35°27' E 139°39'0 0.0
2015-Jun-29 11:33N 35°27' E 139°39'0 0.0
2015-Jun-29 10:34N 35°27' E 139°39'0 0.0
2015-Jun-29 09:33N 35°27' E 139°39'0 0.0
2015-Jun-29 08:33N 35°27' E 139°39'0 0.0
2015-Jun-29 07:34N 35°27' E 139°39'0 0.0
2015-Jun-29 06:33N 35°27' E 139°39'0 0.0
2015-Jun-29 05:33N 35°27' E 139°39'0 0.0
2015-Jun-29 04:33N 35°27' E 139°39'3 3.0
2015-Jun-29 03:33N 35°24' E 139°38'0 0.2
2015-Jun-29 02:34N 35°24' E 139°38'3 2.7
2015-Jun-29 01:34N 35°23' E 139°41'1 0.5
2015-Jun-29 00:34N 35°23' E 139°41'0 0.0
2015-Jun-28 23:33N 35°23' E 139°41'1 1.3
2015-Jun-28 22:33N 35°24' E 139°40'1 1.2
2015-Jun-28 21:34N 35°23' E 139°41'1 0.8
2015-Jun-28 20:34N 35°23' E 139°40'0 0.1
2015-Jun-28 19:34N 35°23' E 139°40'4 3.8
2015-Jun-28 18:34N 35°27' E 139°40'1 0.7
2015-Jun-28 17:33N 35°28' E 139°41'0 0.0
2015-Jun-28 16:34N 35°28' E 139°41'0 0.0
2015-Jun-28 15:34N 35°28' E 139°41'0 0.0
2015-Jun-28 14:33N 35°28' E 139°41'0 0.0
2015-Jun-28 13:34N 35°28' E 139°41'0 0.0
2015-Jun-28 12:33N 35°28' E 139°41'0 0.0
2015-Jun-28 11:34N 35°28' E 139°41'0 0.0
2015-Jun-28 10:33N 35°28' E 139°41'2 2.0
2015-Jun-28 09:34N 35°29' E 139°42'3 2.8
2015-Jun-28 08:33N 35°30' E 139°45'3 2.8
2015-Jun-28 07:33N 35°29' E 139°42'3 2.6
2015-Jun-28 06:33N 35°27' E 139°40'1 1.3
2015-Jun-28 05:34N 35°27' E 139°42'0 0.0
2015-Jun-28 04:33N 35°27' E 139°42'0 0.0
2015-Jun-28 03:34N 35°27' E 139°42'0 0.0
2015-Jun-28 02:34N 35°27' E 139°42'1 1.3
2015-Jun-28 01:33N 35°28' E 139°44'4 4.0
2015-Jun-28 00:33N 35°31' E 139°46'7 6.6
2015-Jun-27 23:33N 35°27' E 139°39'0 0.5
2015-Jun-27 22:34N 35°27' E 139°39'0 0.0
2015-Jun-27 21:34N 35°27' E 139°39'0 0.0
2015-Jun-27 20:33N 35°27' E 139°39'0 0.0
2015-Jun-27 19:34N 35°27' E 139°39'0 0.0
2015-Jun-27 18:34N 35°27' E 139°39'0 0.0
2015-Jun-27 17:33N 35°27' E 139°39'0 0.0
2015-Jun-27 16:34N 35°27' E 139°39'0 0.0
2015-Jun-27 15:34N 35°27' E 139°39'0 0.0
2015-Jun-27 14:33N 35°27' E 139°39'0 0.0
2015-Jun-27 13:34N 35°27' E 139°39'0 0.0
2015-Jun-27 12:33N 35°27' E 139°39'0 0.0
2015-Jun-27 11:34N 35°27' E 139°39'0 0.0
2015-Jun-27 10:34N 35°27' E 139°39'0 0.0
2015-Jun-27 09:34N 35°27' E 139°39'0 0.0
2015-Jun-27 08:34N 35°27' E 139°39'0 0.0
2015-Jun-27 07:34N 35°27' E 139°39'2 2.3
2015-Jun-27 06:33N 35°27' E 139°42'1111.2
2015-Jun-27 05:34N 35°29' E 139°55'2 2.4
2015-Jun-27 04:33N 35°28' E 139°58'1 1.2
2015-Jun-27 03:34N 35°29' E 139°57'5 5.5
2015-Jun-27 02:33N 35°28' E 139°51'9 8.8
2015-Jun-27 01:34N 35°25' E 139°41'0 0.0
2015-Jun-27 00:33N 35°25' E 139°41'0 0.0
2015-Jun-26 23:34N 35°25' E 139°41'3 3.0
2015-Jun-26 22:33N 35°28' E 139°41'2 1.8
2015-Jun-26 21:33N 35°27' E 139°43'3 2.8
2015-Jun-26 20:34N 35°27' E 139°39'0 0.0
2015-Jun-26 19:34N 35°27' E 139°39'0 0.0
2015-Jun-26 18:34N 35°27' E 139°39'0 0.0
2015-Jun-26 17:33N 35°27' E 139°39'0 0.0
2015-Jun-26 16:33N 35°27' E 139°39'0 0.0
2015-Jun-26 15:33N 35°27' E 139°39'0 0.0
2015-Jun-26 14:33N 35°27' E 139°39'0 0.0
2015-Jun-26 13:34N 35°27' E 139°39'0 0.0
2015-Jun-26 12:34N 35°27' E 139°39'0 0.0
2015-Jun-26 11:34N 35°27' E 139°39'0 0.0
2015-Jun-26 10:34N 35°27' E 139°39'0 0.0
2015-Jun-26 09:34N 35°27' E 139°39'0 0.0
2015-Jun-26 08:33N 35°27' E 139°39'0 0.0
2015-Jun-26 07:34N 35°27' E 139°39'0 0.0
2015-Jun-26 06:34N 35°27' E 139°39'0 0.0
2015-Jun-26 05:33N 35°27' E 139°39'0 0.0
2015-Jun-26 04:34N 35°27' E 139°39'0 0.0
2015-Jun-26 03:33N 35°27' E 139°39'3 2.8
2015-Jun-26 02:33N 35°25' E 139°42'2 2.4
2015-Jun-26 01:33N 35°24' E 139°39'2 2.2
2015-Jun-26 00:33N 35°23' E 139°41'2 2.3
2015-Jun-25 23:33N 35°25' E 139°39'2 2.1
2015-Jun-25 22:33N 35°24' E 139°42'3 3.4
2015-Jun-25 21:33N 35°27' E 139°39'0 0.0
2015-Jun-25 20:33N 35°27' E 139°39'0 0.0
2015-Jun-25 19:33N 35°27' E 139°39'0 0.0
2015-Jun-25 18:33N 35°27' E 139°39'0 0.0
2015-Jun-25 17:33N 35°27' E 139°39'0 0.0
2015-Jun-25 16:33N 35°27' E 139°39'0 0.0
2015-Jun-25 15:33N 35°27' E 139°39'0 0.0
2015-Jun-25 14:33N 35°27' E 139°39'0 0.0
2015-Jun-25 13:33N 35°27' E 139°39'0 0.0
2015-Jun-25 12:33N 35°27' E 139°39'0 0.0
2015-Jun-25 11:33N 35°27' E 139°39'0 0.0
2015-Jun-25 10:33N 35°27' E 139°39'0 0.0
2015-Jun-25 09:33N 35°27' E 139°39'2 1.6
2015-Jun-25 08:33N 35°27' E 139°41'2 1.6
2015-Jun-25 07:33N 35°27' E 139°39'0 0.0
2015-Jun-25 06:33N 35°27' E 139°39'0 0.0
2015-Jun-25 05:33N 35°27' E 139°39'1 0.6
2015-Jun-25 04:33N 35°27' E 139°40'2 2.4
2015-Jun-25 03:34N 35°25' E 139°41'1 1.1
2015-Jun-25 02:33N 35°26' E 139°42'2 2.1
2015-Jun-25 01:33N 35°27' E 139°40'6 6.0
2015-Jun-25 00:33N 35°29' E 139°47'1 1.2
2015-Jun-24 23:33N 35°29' E 139°46'4 3.7
2015-Jun-24 22:33N 35°28' E 139°42'2 1.9
2015-Jun-24 21:33N 35°27' E 139°44'4 3.5
2015-Jun-24 20:33N 35°27' E 139°39'0 0.1
2015-Jun-24 19:33N 35°27' E 139°39'0 0.0
2015-Jun-24 18:33N 35°27' E 139°39'0 0.0
2015-Jun-24 17:33N 35°27' E 139°39'0 0.0
2015-Jun-24 16:33N 35°27' E 139°39'0 0.0
2015-Jun-24 15:33N 35°27' E 139°39'0 0.0
2015-Jun-24 14:33N 35°27' E 139°39'0 0.0
2015-Jun-24 13:33N 35°27' E 139°39'0 0.0
2015-Jun-24 12:33N 35°27' E 139°39'0 0.0
2015-Jun-24 11:33N 35°27' E 139°39'0 0.0
2015-Jun-24 10:33N 35°27' E 139°39'0 0.0
2015-Jun-24 09:33N 35°27' E 139°39'0 0.0
2015-Jun-24 08:33N 35°27' E 139°39'0 0.0
2015-Jun-24 07:33N 35°27' E 139°39'5 4.7
2015-Jun-24 06:33N 35°28' E 139°45'2 1.8
2015-Jun-24 05:33N 35°30' E 139°44'5 4.9
2015-Jun-24 04:33N 35°26' E 139°42'0 0.0
2015-Jun-24 03:33N 35°26' E 139°42'0 0.0
2015-Jun-24 02:33N 35°26' E 139°42'0 0.0
2015-Jun-24 01:33N 35°26' E 139°42'0 0.0
2015-Jun-24 00:33N 35°26' E 139°42'0 0.0
2015-Jun-23 23:33N 35°26' E 139°42'1 0.8
2015-Jun-23 22:33N 35°25' E 139°41'1 1.1
2015-Jun-23 21:33N 35°25' E 139°42'3 2.9
2015-Jun-23 20:33N 35°27' E 139°39'0 0.0
2015-Jun-23 19:33N 35°27' E 139°39'0 0.0
2015-Jun-23 19:06N 35°27' E 139°39'  
Track history (hours):
 
Tides and Currents Weather Stations Pressure Air Temp Water Temp Dewpoint Dewpoint Depression Visibility Wind Speed Wind Dir Waves Ship Positions

Awaji Maru

Last reported at 2015-Jul-03 07:34 UTC. Time now 2015-Jul-03 07:57 UTC.
Position N 35°27' E 139°39'.

Length 37 m; draft 3 m.

Type: Tug. MMSI: 431001074.

Date/timePositionNaut miles runAvg speedWind from/ knotsBaromVisibWave heightAir tempDewpointWater temp
2015-Jul-03 07:34N 35°27' E 139°39'0 0.0
2015-Jul-03 06:33N 35°27' E 139°39'0 0.0
2015-Jul-03 05:33N 35°27' E 139°39'0 0.1
2015-Jul-03 04:33N 35°27' E 139°39'4 4.4
2015-Jul-03 03:33N 35°28' E 139°44'1 0.6
2015-Jul-03 02:33N 35°28' E 139°44'2 1.6
2015-Jul-03 01:33N 35°29' E 139°45'0 0.0
2015-Jul-03 00:33N 35°29' E 139°45'0 0.0
2015-Jul-02 23:33N 35°29' E 139°45'1 1.4
2015-Jul-02 22:33N 35°30' E 139°45'3 2.8
2015-Jul-02 21:33N 35°29' E 139°42'3 2.7
2015-Jul-02 20:33N 35°27' E 139°39'0 0.0
2015-Jul-02 19:34N 35°27' E 139°39'0 0.0
2015-Jul-02 18:33N 35°27' E 139°39'0 0.0
2015-Jul-02 17:34N 35°27' E 139°39'0 0.0
2015-Jul-02 16:33N 35°27' E 139°39'0 0.0
2015-Jul-02 15:33N 35°27' E 139°39'0 0.0
2015-Jul-02 14:33N 35°27' E 139°39'0 0.0
2015-Jul-02 13:33N 35°27' E 139°39'0 0.0
2015-Jul-02 12:33N 35°27' E 139°39'0 0.0
2015-Jul-02 11:34N 35°27' E 139°39'0 0.0
2015-Jul-02 10:34N 35°27' E 139°39'0 0.0
2015-Jul-02 09:33N 35°27' E 139°39'0 0.0
2015-Jul-02 08:33N 35°27' E 139°39'0 0.0
2015-Jul-02 07:33N 35°27' E 139°39'2 2.1
2015-Jul-02 06:33N 35°26' E 139°42'3 2.8
2015-Jul-02 05:33N 35°25' E 139°39'2 2.3
2015-Jul-02 04:33N 35°23' E 139°41'1 0.6
2015-Jul-02 03:33N 35°23' E 139°40'5 4.7
2015-Jul-02 02:33N 35°27' E 139°40'1 0.8
2015-Jul-02 01:33N 35°27' E 139°41'3 2.9
2015-Jul-02 00:32N 35°24' E 139°39'0 0.2
2015-Jul-01 23:33N 35°24' E 139°39'3 2.7
2015-Jul-01 22:32N 35°26' E 139°42'1 0.7
2015-Jul-01 21:33N 35°26' E 139°42'2 2.4
2015-Jul-01 20:33N 35°27' E 139°39'0 0.3
2015-Jul-01 19:33N 35°27' E 139°39'0 0.0
2015-Jul-01 18:20N 35°27' E 139°39'0 0.0
2015-Jul-01 17:16N 35°27' E 139°39'0 0.0
2015-Jul-01 16:33N 35°27' E 139°39'0 0.0
2015-Jul-01 14:33N 35°27' E 139°39'0 0.0
2015-Jul-01 13:24N 35°27' E 139°39'0 0.0
2015-Jul-01 11:29N 35°27' E 139°39'0 0.0
2015-Jul-01 10:33N 35°27' E 139°39'2 1.9
2015-Jul-01 09:33N 35°27' E 139°42'1 1.0
2015-Jul-01 08:33N 35°28' E 139°42'2 2.0
2015-Jul-01 07:33N 35°26' E 139°41'4 3.9
2015-Jul-01 06:33N 35°27' E 139°45'5 4.6
2015-Jul-01 05:33N 35°27' E 139°40'4 3.6
2015-Jul-01 04:33N 35°24' E 139°40'0 0.1
2015-Jul-01 03:33N 35°24' E 139°40'1 0.5
2015-Jul-01 02:33N 35°23' E 139°40'2 1.9
2015-Jul-01 01:32N 35°25' E 139°39'2 2.2
2015-Jul-01 00:33N 35°23' E 139°41'4 3.8
2015-Jun-30 23:34N 35°27' E 139°43'3 2.9
2015-Jun-30 22:34N 35°27' E 139°39'0 0.0
2015-Jun-30 21:34N 35°27' E 139°39'0 0.0
2015-Jun-30 20:34N 35°27' E 139°39'0 0.0
2015-Jun-30 19:33N 35°27' E 139°39'0 0.0
2015-Jun-30 18:34N 35°27' E 139°39'0 0.0
2015-Jun-30 17:33N 35°27' E 139°39'0 0.0
2015-Jun-30 16:33N 35°27' E 139°39'0 0.0
2015-Jun-30 15:34N 35°27' E 139°39'0 0.0
2015-Jun-30 14:34N 35°27' E 139°39'0 0.0
2015-Jun-30 13:34N 35°27' E 139°39'0 0.0
2015-Jun-30 12:34N 35°27' E 139°39'0 0.0
2015-Jun-30 11:33N 35°27' E 139°39'0 0.0
2015-Jun-30 10:34N 35°27' E 139°39'0 0.0
2015-Jun-30 09:33N 35°27' E 139°39'2 1.9
2015-Jun-30 08:34N 35°25' E 139°41'2 1.9
2015-Jun-30 07:33N 35°27' E 139°39'0 0.0
2015-Jun-30 06:33N 35°27' E 139°39'0 0.0
2015-Jun-30 05:33N 35°27' E 139°39'4 4.0
2015-Jun-30 04:33N 35°29' E 139°43'0 0.3
2015-Jun-30 03:34N 35°29' E 139°43'0 0.0
2015-Jun-30 02:34N 35°29' E 139°43'0 0.0
2015-Jun-30 01:33N 35°29' E 139°43'7 6.8
2015-Jun-30 00:33N 35°24' E 139°38'3 2.7
2015-Jun-29 23:34N 35°24' E 139°41'4 3.6
2015-Jun-29 22:34N 35°27' E 139°39'0 0.0
2015-Jun-29 21:33N 35°27' E 139°39'0 0.0
2015-Jun-29 20:33N 35°27' E 139°39'0 0.0
2015-Jun-29 19:33N 35°27' E 139°39'0 0.0
2015-Jun-29 18:33N 35°27' E 139°39'0 0.0
2015-Jun-29 17:33N 35°27' E 139°39'0 0.0
2015-Jun-29 16:33N 35°27' E 139°39'0 0.0
2015-Jun-29 15:33N 35°27' E 139°39'0 0.0
2015-Jun-29 14:33N 35°27' E 139°39'0 0.0
2015-Jun-29 13:34N 35°27' E 139°39'0 0.0
2015-Jun-29 12:34N 35°27' E 139°39'0 0.0
2015-Jun-29 11:33N 35°27' E 139°39'0 0.0
2015-Jun-29 10:34N 35°27' E 139°39'0 0.0
2015-Jun-29 09:33N 35°27' E 139°39'0 0.0
2015-Jun-29 08:33N 35°27' E 139°39'0 0.0
2015-Jun-29 07:34N 35°27' E 139°39'0 0.0
2015-Jun-29 06:33N 35°27' E 139°39'0 0.0
2015-Jun-29 05:33N 35°27' E 139°39'0 0.0
2015-Jun-29 04:33N 35°27' E 139°39'3 3.0
2015-Jun-29 03:33N 35°24' E 139°38'0 0.2
2015-Jun-29 02:34N 35°24' E 139°38'3 2.7
2015-Jun-29 01:34N 35°23' E 139°41'1 0.5
2015-Jun-29 00:34N 35°23' E 139°41'0 0.0
2015-Jun-28 23:33N 35°23' E 139°41'1 1.3
2015-Jun-28 22:33N 35°24' E 139°40'1 1.2
2015-Jun-28 21:34N 35°23' E 139°41'1 0.8
2015-Jun-28 20:34N 35°23' E 139°40'0 0.1
2015-Jun-28 19:34N 35°23' E 139°40'4 3.8
2015-Jun-28 18:34N 35°27' E 139°40'1 0.7
2015-Jun-28 17:33N 35°28' E 139°41'0 0.0
2015-Jun-28 16:34N 35°28' E 139°41'0 0.0
2015-Jun-28 15:34N 35°28' E 139°41'0 0.0
2015-Jun-28 14:33N 35°28' E 139°41'0 0.0
2015-Jun-28 13:34N 35°28' E 139°41'0 0.0
2015-Jun-28 12:33N 35°28' E 139°41'0 0.0
2015-Jun-28 11:34N 35°28' E 139°41'0 0.0
2015-Jun-28 10:33N 35°28' E 139°41'2 2.0
2015-Jun-28 09:34N 35°29' E 139°42'3 2.8
2015-Jun-28 08:33N 35°30' E 139°45'3 2.8
2015-Jun-28 07:33N 35°29' E 139°42'3 2.6
2015-Jun-28 06:33N 35°27' E 139°40'1 1.3
2015-Jun-28 05:34N 35°27' E 139°42'0 0.0
2015-Jun-28 04:33N 35°27' E 139°42'0 0.0
2015-Jun-28 03:34N 35°27' E 139°42'0 0.0
2015-Jun-28 02:34N 35°27' E 139°42'1 1.3
2015-Jun-28 01:33N 35°28' E 139°44'4 4.0
2015-Jun-28 00:33N 35°31' E 139°46'7 6.6
2015-Jun-27 23:33N 35°27' E 139°39'0 0.5
2015-Jun-27 22:34N 35°27' E 139°39'0 0.0
2015-Jun-27 21:34N 35°27' E 139°39'0 0.0
2015-Jun-27 20:33N 35°27' E 139°39'0 0.0
2015-Jun-27 19:34N 35°27' E 139°39'0 0.0
2015-Jun-27 18:34N 35°27' E 139°39'0 0.0
2015-Jun-27 17:33N 35°27' E 139°39'0 0.0
2015-Jun-27 16:34N 35°27' E 139°39'0 0.0
2015-Jun-27 15:34N 35°27' E 139°39'0 0.0
2015-Jun-27 14:33N 35°27' E 139°39'0 0.0
2015-Jun-27 13:34N 35°27' E 139°39'0 0.0
2015-Jun-27 12:33N 35°27' E 139°39'0 0.0
2015-Jun-27 11:34N 35°27' E 139°39'0 0.0
2015-Jun-27 10:34N 35°27' E 139°39'0 0.0
2015-Jun-27 09:34N 35°27' E 139°39'0 0.0
2015-Jun-27 08:34N 35°27' E 139°39'0 0.0
2015-Jun-27 07:34N 35°27' E 139°39'2 2.3
2015-Jun-27 06:33N 35°27' E 139°42'1111.2
2015-Jun-27 05:34N 35°29' E 139°55'2 2.4
2015-Jun-27 04:33N 35°28' E 139°58'1 1.2
2015-Jun-27 03:34N 35°29' E 139°57'5 5.5
2015-Jun-27 02:33N 35°28' E 139°51'9 8.8
2015-Jun-27 01:34N 35°25' E 139°41'0 0.0
2015-Jun-27 00:33N 35°25' E 139°41'0 0.0
2015-Jun-26 23:34N 35°25' E 139°41'3 3.0
2015-Jun-26 22:33N 35°28' E 139°41'2 1.8
2015-Jun-26 21:33N 35°27' E 139°43'3 2.8
2015-Jun-26 20:34N 35°27' E 139°39'0 0.0
2015-Jun-26 19:34N 35°27' E 139°39'0 0.0
2015-Jun-26 18:34N 35°27' E 139°39'0 0.0
2015-Jun-26 17:33N 35°27' E 139°39'0 0.0
2015-Jun-26 16:33N 35°27' E 139°39'0 0.0
2015-Jun-26 15:33N 35°27' E 139°39'0 0.0
2015-Jun-26 14:33N 35°27' E 139°39'0 0.0
2015-Jun-26 13:34N 35°27' E 139°39'0 0.0
2015-Jun-26 12:34N 35°27' E 139°39'0 0.0
2015-Jun-26 11:34N 35°27' E 139°39'0 0.0
2015-Jun-26 10:34N 35°27' E 139°39'0 0.0
2015-Jun-26 09:34N 35°27' E 139°39'0 0.0
2015-Jun-26 08:33N 35°27' E 139°39'0 0.0
2015-Jun-26 07:34N 35°27' E 139°39'0 0.0
2015-Jun-26 06:34N 35°27' E 139°39'0 0.0
2015-Jun-26 05:33N 35°27' E 139°39'0 0.0
2015-Jun-26 04:34N 35°27' E 139°39'0 0.0
2015-Jun-26 03:33N 35°27' E 139°39'3 2.8
2015-Jun-26 02:33N 35°25' E 139°42'2 2.4
2015-Jun-26 01:33N 35°24' E 139°39'2 2.2
2015-Jun-26 00:33N 35°23' E 139°41'2 2.3
2015-Jun-25 23:33N 35°25' E 139°39'2 2.1
2015-Jun-25 22:33N 35°24' E 139°42'3 3.4
2015-Jun-25 21:33N 35°27' E 139°39'0 0.0
2015-Jun-25 20:33N 35°27' E 139°39'0 0.0
2015-Jun-25 19:33N 35°27' E 139°39'0 0.0
2015-Jun-25 18:33N 35°27' E 139°39'0 0.0
2015-Jun-25 17:33N 35°27' E 139°39'0 0.0
2015-Jun-25 16:33N 35°27' E 139°39'0 0.0
2015-Jun-25 15:33N 35°27' E 139°39'0 0.0
2015-Jun-25 14:33N 35°27' E 139°39'0 0.0
2015-Jun-25 13:33N 35°27' E 139°39'0 0.0
2015-Jun-25 12:33N 35°27' E 139°39'0 0.0
2015-Jun-25 11:33N 35°27' E 139°39'0 0.0
2015-Jun-25 10:33N 35°27' E 139°39'0 0.0
2015-Jun-25 09:33N 35°27' E 139°39'2 1.6
2015-Jun-25 08:33N 35°27' E 139°41'2 1.6
2015-Jun-25 07:33N 35°27' E 139°39'0 0.0
2015-Jun-25 06:33N 35°27' E 139°39'0 0.0
2015-Jun-25 05:33N 35°27' E 139°39'1 0.6
2015-Jun-25 04:33N 35°27' E 139°40'2 2.4
2015-Jun-25 03:34N 35°25' E 139°41'1 1.1
2015-Jun-25 02:33N 35°26' E 139°42'2 2.1
2015-Jun-25 01:33N 35°27' E 139°40'6 6.0
2015-Jun-25 00:33N 35°29' E 139°47'1 1.2
2015-Jun-24 23:33N 35°29' E 139°46'4 3.7
2015-Jun-24 22:33N 35°28' E 139°42'2 1.9
2015-Jun-24 21:33N 35°27' E 139°44'4 3.5
2015-Jun-24 20:33N 35°27' E 139°39'0 0.1
2015-Jun-24 19:33N 35°27' E 139°39'0 0.0
2015-Jun-24 18:33N 35°27' E 139°39'0 0.0
2015-Jun-24 17:33N 35°27' E 139°39'0 0.0
2015-Jun-24 16:33N 35°27' E 139°39'0 0.0
2015-Jun-24 15:33N 35°27' E 139°39'0 0.0
2015-Jun-24 14:33N 35°27' E 139°39'0 0.0
2015-Jun-24 13:33N 35°27' E 139°39'0 0.0
2015-Jun-24 12:33N 35°27' E 139°39'0 0.0
2015-Jun-24 11:33N 35°27' E 139°39'0 0.0
2015-Jun-24 10:33N 35°27' E 139°39'0 0.0
2015-Jun-24 09:33N 35°27' E 139°39'0 0.0
2015-Jun-24 08:33N 35°27' E 139°39'0 0.0
2015-Jun-24 07:33N 35°27' E 139°39'5 4.7
2015-Jun-24 06:33N 35°28' E 139°45'2 1.8
2015-Jun-24 05:33N 35°30' E 139°44'5 4.9
2015-Jun-24 04:33N 35°26' E 139°42'0 0.0
2015-Jun-24 03:33N 35°26' E 139°42'0 0.0
2015-Jun-24 02:33N 35°26' E 139°42'0 0.0
2015-Jun-24 01:33N 35°26' E 139°42'0 0.0
2015-Jun-24 00:33N 35°26' E 139°42'0 0.0
2015-Jun-23 23:33N 35°26' E 139°42'1 0.8
2015-Jun-23 22:33N 35°25' E 139°41'1 1.1
2015-Jun-23 21:33N 35°25' E 139°42'3 2.9
2015-Jun-23 20:33N 35°27' E 139°39'0 0.0
2015-Jun-23 19:33N 35°27' E 139°39'0 0.0
2015-Jun-23 19:06N 35°27' E 139°39'  

Dump ship's entire track history